Time;durP1;ratioP1;P1;durP2;ratioP2;P2;SDS_P1;SDS_P2;PMS_P1;PMS_P2;Temp;Humidity;BMP_temperature;BMP_pressure;BME280_temperature;BME280_humidity;BME280_pressure;Samples;Min_cycle;Max_cycle;Signal;HPM_P1;HPM_P2
2022/07/11 00:01:48;;;;;;;5.60;2.00;;;;;;;20.44;52.27;101022.28;5079453;28;20032;-71
2022/07/11 00:04:13;;;;;;;3.30;1.67;;;;;;;20.39;52.94;101020.50;5078096;28;20016;-71
2022/07/11 00:06:39;;;;;;;2.67;1.50;;;;;;;20.35;52.98;101015.91;5057976;28;20235;-71
2022/07/11 00:09:04;;;;;;;3.45;1.77;;;;;;;20.33;52.55;101021.06;5055096;28;20028;-71
2022/07/11 00:11:30;;;;;;;5.97;1.73;;;;;;;20.29;53.51;101009.66;5077962;28;20039;-71
2022/07/11 00:13:55;;;;;;;4.03;1.50;;;;;;;20.26;53.80;101007.56;5047001;28;20066;-71
2022/07/11 00:16:20;;;;;;;2.85;1.33;;;;;;;20.22;52.86;101013.03;5061106;28;20024;-71
2022/07/11 00:18:46;;;;;;;4.50;1.88;;;;;;;20.18;53.86;101009.28;5077590;28;20032;-71
2022/07/11 00:21:12;;;;;;;4.18;1.60;;;;;;;20.14;52.60;101011.13;5024434;28;20033;-71
2022/07/11 00:23:38;;;;;;;5.57;2.03;;;;;;;20.11;53.33;101020.28;5057959;28;20056;-71
2022/07/11 00:26:04;;;;;;;4.93;1.50;;;;;;;20.05;52.80;101014.03;5026475;28;20025;-71
2022/07/11 00:28:29;;;;;;;3.53;1.45;;;;;;;20.03;53.15;101001.44;5060994;28;20027;-71
2022/07/11 00:30:55;;;;;;;3.35;1.48;;;;;;;19.97;53.76;100995.22;5057496;28;20029;-71
2022/07/11 00:33:20;;;;;;;5.03;1.58;;;;;;;19.98;54.55;100993.25;5039444;28;20028;-71
2022/07/11 00:35:46;;;;;;;5.13;1.58;;;;;;;19.97;53.63;100992.38;5060514;28;20024;-71
2022/07/11 00:38:11;;;;;;;3.00;1.50;;;;;;;19.93;53.46;100994.25;5060807;28;20028;-71
2022/07/11 00:40:37;;;;;;;5.28;1.60;;;;;;;19.91;53.55;101004.22;5060597;28;20025;-71
2022/07/11 00:43:05;;;;;;;3.10;1.30;;;;;;;19.87;53.24;100998.47;5060598;28;20032;-71
2022/07/11 00:45:31;;;;;;;4.15;1.60;;;;;;;19.85;53.93;100990.34;5043814;28;20028;-71
2022/07/11 00:47:56;;;;;;;1.90;1.20;;;;;;;19.82;54.59;100991.03;5060588;28;20055;-71
2022/07/11 00:50:22;;;;;;;4.03;1.55;;;;;;;19.81;54.85;100992.22;5043488;28;20434;-71
2022/07/11 00:52:49;;;;;;;3.22;1.55;;;;;;;19.74;53.27;100997.56;5060325;28;20032;-71
2022/07/11 00:55:15;;;;;;;2.40;1.40;;;;;;;19.67;53.59;100988.88;5043701;28;20044;-71
2022/07/11 00:57:40;;;;;;;3.67;1.52;;;;;;;19.59;55.95;100996.19;5059140;28;20028;-71
2022/07/11 01:00:06;;;;;;;4.97;1.33;;;;;;;19.61;54.49;100998.63;5043603;28;20054;-71
2022/07/11 01:02:32;;;;;;;4.45;1.70;;;;;;;19.56;55.31;100990.41;5060456;28;20040;-71
2022/07/11 01:04:57;;;;;;;3.22;1.40;;;;;;;19.51;55.51;100984.97;5026841;28;20029;-71
2022/07/11 01:07:22;;;;;;;5.35;1.60;;;;;;;19.51;54.89;100987.81;5043788;28;20025;-71
2022/07/11 01:09:49;;;;;;;2.25;1.60;;;;;;;19.47;54.74;100984.81;5026073;28;20032;-71
2022/07/11 01:12:15;;;;;;;3.65;1.35;;;;;;;19.40;54.84;100979.75;5043658;28;20021;-71
2022/07/11 01:14:53;;;;;;;3.20;1.50;;;;;;;19.39;55.31;100986.56;5026751;28;20036;-71
2022/07/11 01:17:19;;;;;;;4.18;1.45;;;;;;;19.38;55.68;100982.06;5059887;28;20020;-71
2022/07/11 01:19:44;;;;;;;4.53;1.83;;;;;;;19.33;55.62;100976.63;5076306;28;20447;-71
2022/07/11 01:22:10;;;;;;;4.18;1.60;;;;;;;19.32;56.50;100979.81;5059856;28;20036;-71
2022/07/11 01:24:35;;;;;;;3.30;1.60;;;;;;;19.34;56.78;100978.31;5043432;28;20473;-71
2022/07/11 01:27:01;;;;;;;3.83;1.75;;;;;;;19.28;56.52;100974.06;5076567;28;20029;-71
2022/07/11 01:29:27;;;;;;;5.82;1.70;;;;;;;19.26;57.14;100975.56;5056671;28;20029;-71
2022/07/11 01:31:52;;;;;;;4.25;1.70;;;;;;;19.24;57.13;100987.16;5059902;28;20027;-71
2022/07/11 01:34:17;;;;;;;2.75;1.33;;;;;;;19.24;55.75;100975.06;5059290;28;20027;-71
2022/07/11 01:36:43;;;;;;;4.30;1.40;;;;;;;19.16;55.47;100979.59;5076301;28;20055;-71
2022/07/11 01:39:08;;;;;;;2.60;1.25;;;;;;;19.08;55.78;100983.28;5059611;28;20028;-71
2022/07/11 01:41:34;;;;;;;3.55;1.52;;;;;;;19.09;55.84;100985.75;5075944;28;20578;-71
2022/07/11 01:43:59;;;;;;;2.28;1.50;;;;;;;19.02;56.14;100984.63;5076155;28;20485;-71
2022/07/11 01:46:25;;;;;;;5.60;1.65;;;;;;;19.00;56.33;100986.97;5023474;28;20021;-71
2022/07/11 01:48:51;;;;;;;3.67;1.85;;;;;;;18.96;56.27;100981.19;5058274;28;20028;-71
2022/07/11 01:51:17;;;;;;;3.83;1.80;;;;;;;18.95;57.67;100979.56;5059419;28;20039;-71
2022/07/11 01:53:42;;;;;;;3.40;1.88;;;;;;;18.93;57.62;100985.50;5023165;28;20381;-71
2022/07/11 01:56:08;;;;;;;2.83;1.60;;;;;;;18.92;57.69;100978.25;5042492;28;20417;-71
2022/07/11 01:58:34;;;;;;;2.70;1.58;;;;;;;18.88;57.72;100974.44;5075729;28;20027;-71
2022/07/11 02:00:59;;;;;;;2.63;1.48;;;;;;;18.85;57.46;100980.75;5059173;28;20039;-71
2022/07/11 02:03:25;;;;;;;3.25;1.52;;;;;;;18.81;58.16;100974.16;5042311;28;20044;-71
2022/07/11 02:05:50;;;;;;;3.00;1.60;;;;;;;18.76;59.18;100974.34;5058977;28;20027;-71
2022/07/11 02:08:17;;;;;;;3.85;1.58;;;;;;;18.74;59.11;100973.84;5042608;28;20021;-71
2022/07/11 02:10:47;;;;;;;3.00;1.52;;;;;;;18.67;59.35;100973.53;5056184;28;20186;-71
2022/07/11 02:13:15;;;;;;;5.65;1.67;;;;;;;18.63;58.72;100973.38;5055566;28;20612;-71
2022/07/11 02:15:41;;;;;;;2.65;1.42;;;;;;;18.69;58.74;100968.38;5040806;28;20040;-71
2022/07/11 02:18:07;;;;;;;5.72;1.95;;;;;;;18.63;57.94;100970.56;5058809;28;20048;-71
2022/07/11 02:20:32;;;;;;;3.65;1.58;;;;;;;18.56;58.59;100966.63;5055534;28;20040;-71
2022/07/11 02:22:58;;;;;;;5.68;1.55;;;;;;;18.55;58.78;100971.41;5042259;28;20031;-71
2022/07/11 02:25:24;;;;;;;3.25;1.50;;;;;;;18.56;58.96;100973.09;5042173;28;20044;-71
2022/07/11 02:27:50;;;;;;;3.88;1.60;;;;;;;18.54;58.62;100964.97;5056491;28;20059;-71
2022/07/11 02:30:15;;;;;;;4.28;1.70;;;;;;;18.48;58.22;100959.88;5059049;28;20035;-71
2022/07/11 02:32:41;;;;;;;6.32;1.67;;;;;;;18.45;58.09;100963.38;5057857;28;20033;-71
2022/07/11 02:35:06;;;;;;;5.40;1.73;;;;;;;18.38;58.35;100966.69;5058393;28;20116;-71
2022/07/11 02:37:32;;;;;;;3.20;1.30;;;;;;;18.34;59.26;100974.16;5041710;28;20028;-71
2022/07/11 02:39:57;;;;;;;4.00;1.70;;;;;;;18.27;59.30;100974.66;5038738;28;20021;-71
2022/07/11 02:42:23;;;;;;;3.60;1.50;;;;;;;18.28;60.34;100975.50;5038123;28;20032;-71
2022/07/11 02:44:48;;;;;;;5.70;1.80;;;;;;;18.29;60.30;100974.31;5056488;28;20033;-71
2022/07/11 02:47:14;;;;;;;3.20;1.88;;;;;;;18.25;59.46;100978.97;5058789;28;20173;-71
2022/07/11 02:49:40;;;;;;;3.55;1.65;;;;;;;18.25;60.31;100973.34;5057973;28;20298;-71
2022/07/11 02:52:05;;;;;;;3.92;1.52;;;;;;;18.23;59.82;100968.06;5041366;28;20045;-71
2022/07/11 02:54:31;;;;;;;2.95;1.50;;;;;;;18.21;60.10;100975.16;5058311;28;20107;-74
2022/07/11 02:56:56;;;;;;;3.05;1.60;;;;;;;18.23;60.72;100970.03;5057917;28;20028;-71
2022/07/11 02:59:22;;;;;;;4.75;1.40;;;;;;;18.22;60.35;100980.47;5038199;28;20031;-71
2022/07/11 03:01:48;;;;;;;2.72;1.70;;;;;;;18.21;60.08;100977.97;5047621;28;20035;-71
2022/07/11 03:04:13;;;;;;;5.38;1.70;;;;;;;18.15;59.76;100970.91;5058225;28;20107;-71
2022/07/11 03:06:39;;;;;;;4.05;1.70;;;;;;;18.12;59.76;100975.19;5058023;28;20025;-71
2022/07/11 03:09:05;;;;;;;3.03;1.25;;;;;;;18.12;59.17;100972.38;5056666;28;20709;-71
2022/07/11 03:11:31;;;;;;;4.57;1.50;;;;;;;18.07;59.41;100973.38;5054604;28;20032;-71
2022/07/11 03:13:57;;;;;;;2.60;1.38;;;;;;;18.04;59.94;100967.59;5040874;28;20020;-71
2022/07/11 03:16:22;;;;;;;4.45;1.85;;;;;;;18.00;59.73;100973.06;5054447;28;20029;-71
2022/07/11 03:18:48;;;;;;;2.50;1.55;;;;;;;17.96;59.64;100977.69;5050312;28;20025;-71
2022/07/11 03:21:13;;;;;;;3.80;1.70;;;;;;;17.92;59.44;100973.09;5059527;28;20806;-71
2022/07/11 03:23:39;;;;;;;4.55;1.60;;;;;;;17.90;60.12;100973.41;5062112;28;20033;-71
2022/07/11 03:26:05;;;;;;;3.13;1.60;;;;;;;17.91;59.29;100977.84;5044793;28;20044;-71
2022/07/11 03:28:30;;;;;;;2.97;1.40;;;;;;;17.83;59.43;100971.13;5062102;28;20029;-71
2022/07/11 03:30:56;;;;;;;3.10;1.80;;;;;;;17.81;59.25;100975.41;5062116;28;20032;-71
2022/07/11 03:33:21;;;;;;;5.00;1.67;;;;;;;17.78;60.10;100981.66;5053048;28;20025;-71
2022/07/11 03:35:47;;;;;;;4.80;1.73;;;;;;;17.77;59.98;100974.38;5060135;28;20182;-71
2022/07/11 03:38:15;;;;;;;3.08;1.50;;;;;;;17.75;59.99;100979.53;5045144;28;20062;-71
2022/07/11 03:40:41;;;;;;;3.33;1.45;;;;;;;17.71;60.13;100976.53;5045925;28;20040;-71
2022/07/11 03:43:06;;;;;;;4.15;1.33;;;;;;;17.71;59.95;100981.31;5061262;28;20028;-71
2022/07/11 03:45:32;;;;;;;2.17;1.52;;;;;;;17.71;60.25;100982.13;5058522;28;20029;-71
2022/07/11 03:47:57;;;;;;;2.38;1.27;;;;;;;17.70;60.56;100979.69;5044479;28;20062;-71
2022/07/11 03:50:22;;;;;;;3.60;1.40;;;;;;;17.64;60.56;100979.03;5057888;28;20040;-71
2022/07/11 03:52:48;;;;;;;2.83;1.40;;;;;;;17.59;60.12;100979.19;5054214;28;20524;-72
2022/07/11 03:55:13;;;;;;;2.50;1.58;;;;;;;17.58;61.23;100978.38;5061530;28;20056;-71
2022/07/11 03:57:39;;;;;;;1.73;1.20;;;;;;;17.56;60.66;100974.22;5078163;28;20385;-71
2022/07/11 04:00:06;;;;;;;3.00;1.38;;;;;;;17.50;60.83;100976.38;5044794;28;20385;-71
2022/07/11 04:02:34;;;;;;;2.65;1.60;;;;;;;17.46;60.94;100974.53;5044949;28;20024;-71
2022/07/11 04:05:01;;;;;;;2.05;1.38;;;;;;;17.46;61.45;100985.78;5051083;28;20032;-71
2022/07/11 04:07:29;;;;;;;3.50;1.70;;;;;;;17.42;61.11;100985.63;5061687;28;20090;-71
2022/07/11 04:09:55;;;;;;;2.47;1.58;;;;;;;17.43;61.65;100984.44;5043603;28;20116;-71
2022/07/11 04:12:20;;;;;;;3.05;1.60;;;;;;;17.39;62.40;100986.28;5061378;28;20056;-71
2022/07/11 04:14:46;;;;;;;3.53;1.60;;;;;;;17.36;61.12;100984.13;5057849;28;20037;-71
2022/07/11 04:17:11;;;;;;;3.08;1.63;;;;;;;17.33;60.89;100987.59;5056277;28;20032;-71
2022/07/11 04:19:38;;;;;;;3.80;1.92;;;;;;;17.34;62.27;100989.25;5044136;28;20036;-71
2022/07/11 04:22:04;;;;;;;3.15;1.60;;;;;;;17.33;61.96;100994.03;5060980;28;20032;-71
2022/07/11 04:24:29;;;;;;;1.83;1.40;;;;;;;17.29;61.51;100995.00;5044298;28;20382;-71
2022/07/11 04:26:55;;;;;;;3.75;1.45;;;;;;;17.28;62.06;100988.56;5076076;28;20155;-71
2022/07/11 04:29:20;;;;;;;4.00;1.48;;;;;;;17.33;61.35;100993.22;5044293;28;20408;-71
2022/07/11 04:31:46;;;;;;;2.65;1.60;;;;;;;17.27;61.85;100988.88;5060122;28;20098;-71
2022/07/11 04:34:11;;;;;;;2.55;1.50;;;;;;;17.25;62.85;100991.22;5043093;28;20025;-71
2022/07/11 04:36:37;;;;;;;2.13;1.38;;;;;;;17.27;62.92;100994.50;5077816;28;20484;-71
2022/07/11 04:39:02;;;;;;;2.47;1.40;;;;;;;17.28;64.13;100993.38;5077374;28;20028;-71
2022/07/11 04:41:28;;;;;;;3.40;1.50;;;;;;;17.31;64.89;100989.91;5060788;28;20028;-71
2022/07/11 04:43:53;;;;;;;4.13;1.83;;;;;;;17.34;67.48;100994.84;5043812;28;20029;-71
2022/07/11 04:46:18;;;;;;;3.25;1.65;;;;;;;17.38;66.87;100996.69;5027581;28;20473;-71
2022/07/11 04:48:44;;;;;;;3.10;1.70;;;;;;;17.46;68.34;101003.44;5060189;28;20036;-71
2022/07/11 04:51:09;;;;;;;4.25;1.85;;;;;;;17.53;68.48;101002.97;5043816;28;20051;-71
2022/07/11 04:53:35;;;;;;;3.72;1.70;;;;;;;17.62;69.55;100999.00;5060380;28;20032;-71
2022/07/11 04:56:00;;;;;;;4.80;1.50;;;;;;;17.72;68.61;101005.44;5040405;28;20049;-71
2022/07/11 04:58:26;;;;;;;5.70;2.00;;;;;;;17.82;69.57;101005.16;5074004;28;20020;-71
2022/07/11 05:00:51;;;;;;;3.42;1.60;;;;;;;17.94;69.11;101010.94;5060658;28;20026;-71
2022/07/11 05:03:19;;;;;;;2.90;1.60;;;;;;;18.05;68.55;101012.25;5060299;28;20025;-71
2022/07/11 05:05:45;;;;;;;2.78;1.90;;;;;;;18.20;67.98;101010.91;5093406;28;20113;-71
2022/07/11 05:08:10;;;;;;;2.40;1.70;;;;;;;18.34;67.80;101021.13;5026992;28;20068;-71
2022/07/11 05:10:36;;;;;;;5.00;1.70;;;;;;;18.46;66.15;101018.44;5023020;28;20067;-71
2022/07/11 05:13:02;;;;;;;2.63;1.35;;;;;;;18.62;63.92;101019.56;5043259;28;20028;-71
2022/07/11 05:15:28;;;;;;;3.08;1.52;;;;;;;18.78;64.20;101011.41;5066374;28;20025;-71
2022/07/11 05:17:53;;;;;;;3.13;1.55;;;;;;;18.94;62.21;101004.06;5059857;28;20040;-71
2022/07/11 05:20:19;;;;;;;4.85;1.55;;;;;;;19.11;63.29;101005.09;5026738;28;20021;-71
2022/07/11 05:22:44;;;;;;;2.22;1.40;;;;;;;19.29;61.59;101005.84;5076771;28;20409;-71
2022/07/11 05:25:10;;;;;;;2.03;1.30;;;;;;;19.45;62.22;101008.91;5076598;28;20048;-68
2022/07/11 05:27:35;;;;;;;2.58;1.00;;;;;;;19.62;60.21;101009.59;5059790;28;20038;-68
2022/07/11 05:30:01;;;;;;;2.15;1.40;;;;;;;19.81;59.73;101003.50;5060129;28;20606;-68
2022/07/11 05:32:26;;;;;;;2.92;1.40;;;;;;;19.99;58.23;101009.78;5059798;28;20061;-67
2022/07/11 05:34:52;;;;;;;3.10;1.40;;;;;;;20.18;58.73;101009.28;5042958;28;20039;-68
2022/07/11 05:37:17;;;;;;;2.30;1.27;;;;;;;20.35;57.58;101008.28;5059792;28;20039;-67
2022/07/11 05:39:43;;;;;;;5.13;1.05;;;;;;;20.54;56.19;101010.59;5076619;28;20085;-68
2022/07/11 05:42:08;;;;;;;1.95;1.25;;;;;;;20.74;56.19;101012.50;5042383;28;20083;-68
2022/07/11 05:44:34;;;;;;;2.83;1.33;;;;;;;20.92;55.71;101010.28;5075141;28;20028;-68
2022/07/11 05:47:01;;;;;;;3.25;1.10;;;;;;;21.09;56.40;101009.22;5058755;28;20033;-68
2022/07/11 05:49:26;;;;;;;5.32;1.30;;;;;;;21.22;57.68;101009.22;5042588;28;20032;-67
2022/07/11 05:51:52;;;;;;;2.67;1.10;;;;;;;21.39;56.71;101009.78;5075870;28;20063;-67
2022/07/11 05:54:18;;;;;;;3.00;1.25;;;;;;;21.52;56.51;101007.78;5039621;28;20025;-68
2022/07/11 05:56:44;;;;;;;2.60;1.38;;;;;;;21.66;57.60;101009.41;5077886;28;20041;-68
2022/07/11 05:59:09;;;;;;;3.20;1.33;;;;;;;21.81;58.09;101014.28;5076034;28;20089;-68
2022/07/11 06:01:35;;;;;;;4.93;1.40;;;;;;;21.93;58.12;101008.59;5059238;28;20033;-68
2022/07/11 06:04:00;;;;;;;5.40;1.48;;;;;;;22.04;57.37;101012.56;5058700;28;20189;-69
2022/07/11 06:06:26;;;;;;;4.28;1.38;;;;;;;22.19;57.43;101005.34;5042403;28;20162;-68
2022/07/11 06:08:53;;;;;;;4.43;1.30;;;;;;;22.35;57.35;101016.69;5056766;28;20029;-68
2022/07/11 06:11:19;;;;;;;3.17;1.48;;;;;;;22.49;56.57;101011.41;5059379;28;20029;-68
2022/07/11 06:13:44;;;;;;;2.58;1.30;;;;;;;22.63;56.01;101010.16;5058964;28;20017;-68
2022/07/11 06:16:10;;;;;;;4.60;1.08;;;;;;;22.78;54.89;101012.16;5042393;28;20036;-68
2022/07/11 06:18:36;;;;;;;3.33;1.30;;;;;;;22.87;55.50;101010.00;5055450;28;20031;-68
2022/07/11 06:21:02;;;;;;;2.80;1.15;;;;;;;23.03;55.28;101010.00;5058302;28;20025;-68
2022/07/11 06:23:28;;;;;;;3.60;1.10;;;;;;;23.17;54.98;101016.00;5022100;28;20029;-68
2022/07/11 06:25:54;;;;;;;2.15;1.20;;;;;;;23.29;54.66;101008.56;5071049;28;20033;-68
2022/07/11 06:28:19;;;;;;;4.07;1.10;;;;;;;23.45;53.83;101005.72;5058865;28;20043;-70
2022/07/11 06:30:45;;;;;;;4.68;0.95;;;;;;;23.56;53.52;101007.59;5058736;28;20103;-71
2022/07/11 06:33:10;;;;;;;2.50;0.90;;;;;;;23.68;53.30;101012.34;5075108;28;20035;-68
2022/07/11 06:35:36;;;;;;;3.83;1.20;;;;;;;23.75;52.86;101012.50;5076389;28;20033;-68
2022/07/11 06:38:01;;;;;;;1.75;1.02;;;;;;;23.89;52.31;101012.00;5058069;28;20107;-67
2022/07/11 06:40:27;;;;;;;1.70;0.80;;;;;;;23.99;51.64;100999.25;5098046;28;20039;-68
2022/07/11 06:42:53;;;;;;;5.78;1.20;;;;;;;24.10;51.59;101005.94;5056465;28;20029;-68
2022/07/11 06:45:18;;;;;;;2.15;0.95;;;;;;;24.25;50.81;101007.84;5058565;28;20082;-68
2022/07/11 06:47:43;;;;;;;3.22;0.80;;;;;;;24.46;49.74;101018.00;5056705;28;20028;-67
2022/07/11 06:50:09;;;;;;;2.55;0.90;;;;;;;24.58;49.41;101000.81;5057860;28;20032;-68
2022/07/11 06:52:35;;;;;;;3.10;0.80;;;;;;;24.72;49.24;101003.91;5038476;28;20052;-68
2022/07/11 06:55:01;;;;;;;1.45;0.60;;;;;;;24.82;49.01;101002.44;5040706;28;20053;-68
2022/07/11 06:57:26;;;;;;;1.50;0.60;;;;;;;24.94;49.05;101007.13;5057857;28;20024;-68
2022/07/11 06:59:52;;;;;;;4.95;0.80;;;;;;;25.04;47.75;101000.75;5039884;28;20032;-68
2022/07/11 07:02:17;;;;;;;2.65;0.85;;;;;;;25.16;47.51;100994.09;5075015;28;20035;-67
2022/07/11 07:04:43;;;;;;;4.82;0.98;;;;;;;25.31;46.39;101006.50;5058308;28;20043;-68
2022/07/11 07:07:08;;;;;;;2.88;0.60;;;;;;;25.38;45.94;101000.91;5057608;28;20098;-68
2022/07/11 07:09:33;;;;;;;2.55;0.60;;;;;;;25.48;46.42;101000.25;5047635;28;20032;-68
2022/07/11 07:11:59;;;;;;;1.30;0.80;;;;;;;25.51;45.45;101001.50;5056207;28;20074;-68
2022/07/11 07:14:24;;;;;;;3.45;0.80;;;;;;;25.68;45.39;100997.28;5041262;28;20020;-70
2022/07/11 07:16:50;;;;;;;1.60;0.70;;;;;;;25.75;44.16;100997.38;5055847;28;20029;-67
2022/07/11 07:19:15;;;;;;;2.47;0.60;;;;;;;25.79;44.86;101003.94;5073152;28;20444;-68
2022/07/11 07:21:41;;;;;;;8.43;1.08;;;;;;;25.92;44.79;101008.19;5074547;28;20416;-69
2022/07/11 07:24:06;;;;;;;4.20;1.00;;;;;;;25.91;44.14;101011.41;5058219;28;20082;-68
2022/07/11 07:26:32;;;;;;;1.95;0.68;;;;;;;26.04;44.04;100990.84;5074903;28;20033;-68
2022/07/11 07:28:58;;;;;;;4.43;0.70;;;;;;;26.07;44.49;100998.59;5074500;28;20037;-68
2022/07/11 07:31:24;;;;;;;1.40;0.60;;;;;;;26.15;44.27;100999.53;5074761;28;20037;-68
2022/07/11 07:33:50;;;;;;;1.63;0.63;;;;;;;26.24;42.88;100997.22;5057685;28;20026;-68
2022/07/11 07:36:15;;;;;;;2.53;0.68;;;;;;;26.30;42.80;100994.81;5057953;28;20029;-68
2022/07/11 07:38:43;;;;;;;1.10;0.70;;;;;;;26.32;42.81;100998.09;5057826;28;20075;-68
2022/07/11 07:41:12;;;;;;;1.52;0.63;;;;;;;26.46;43.05;100997.41;5057420;28;20051;-68
2022/07/11 07:43:37;;;;;;;2.22;0.70;;;;;;;26.35;43.15;100999.34;5057700;28;20043;-68
2022/07/11 07:46:04;;;;;;;1.27;0.60;;;;;;;26.43;42.16;101010.41;5057969;28;20028;-68
2022/07/11 07:48:29;;;;;;;2.72;0.60;;;;;;;26.52;41.63;101010.97;5057574;28;20036;-68
2022/07/11 07:50:55;;;;;;;3.33;0.75;;;;;;;26.61;41.42;101009.81;5074292;28;20493;-68
2022/07/11 07:53:20;;;;;;;0.95;0.70;;;;;;;26.58;41.45;101016.28;5074339;28;20071;-68
2022/07/11 07:55:46;;;;;;;5.35;0.70;;;;;;;26.62;41.24;101012.25;5057594;28;20055;-68
2022/07/11 07:58:11;;;;;;;3.75;0.60;;;;;;;26.64;41.58;101021.25;5057439;28;20047;-68
2022/07/11 08:03:21;;;;;;;2.22;0.60;;;;;;;26.86;41.35;101010.88;5071253;28;20028;-68
2022/07/11 08:05:46;;;;;;;3.17;0.70;;;;;;;26.91;40.87;101019.06;5088264;28;20074;-68
2022/07/11 08:08:12;;;;;;;5.13;0.80;;;;;;;26.98;40.71;101015.44;5056077;28;20021;-68
2022/07/11 08:10:37;;;;;;;2.88;0.75;;;;;;;27.07;40.90;101020.78;5041926;28;20025;-68
2022/07/11 08:13:03;;;;;;;1.77;0.82;;;;;;;27.12;40.67;101018.41;5061205;28;20025;-68
2022/07/11 08:15:28;;;;;;;1.75;0.80;;;;;;;27.19;40.33;101017.66;5060669;28;20028;-68
2022/07/11 08:17:54;;;;;;;3.95;0.90;;;;;;;27.28;40.29;101009.59;5077775;28;20500;-68
2022/07/11 08:20:19;;;;;;;2.40;0.70;;;;;;;27.28;40.44;101011.63;5077752;28;20032;-68
2022/07/11 08:22:45;;;;;;;1.45;0.70;;;;;;;27.40;39.94;100997.03;5077560;28;20059;-68
2022/07/11 08:25:10;;;;;;;2.10;0.75;;;;;;;27.52;40.28;100998.72;5061154;28;20036;-68
2022/07/11 08:27:37;;;;;;;2.08;0.70;;;;;;;27.60;40.48;100997.56;5061257;28;20029;-68
2022/07/11 08:30:05;;;;;;;3.10;0.82;;;;;;;27.70;39.57;100988.25;5032907;28;20020;-68
2022/07/11 08:32:30;;;;;;;2.83;0.90;;;;;;;27.75;40.02;100990.72;5027640;28;20032;-68
2022/07/11 08:34:56;;;;;;;1.50;0.82;;;;;;;27.83;40.09;100989.56;5043977;28;20599;-68
2022/07/11 08:37:21;;;;;;;2.90;0.70;;;;;;;27.88;38.95;100985.50;5060467;28;20029;-68
2022/07/11 08:39:47;;;;;;;2.03;0.75;;;;;;;27.94;39.40;100985.91;5077546;28;20098;-68
2022/07/11 08:42:12;;;;;;;2.67;0.70;;;;;;;27.94;38.91;100989.59;5043293;28;20031;-68
2022/07/11 08:44:39;;;;;;;2.25;0.70;;;;;;;27.97;39.03;100993.66;5060537;28;20033;-68
2022/07/11 08:47:05;;;;;;;1.05;0.47;;;;;;;28.15;38.44;100990.91;5060898;28;20039;-68
2022/07/11 08:49:31;;;;;;;2.72;0.75;;;;;;;28.21;37.92;101001.50;5060227;28;20040;-68
2022/07/11 08:51:56;;;;;;;2.50;0.60;;;;;;;28.34;37.83;100986.88;5043578;28;20115;-68
2022/07/11 08:54:22;;;;;;;1.55;0.80;;;;;;;28.40;38.42;100994.63;5060570;28;20080;-68
2022/07/11 08:56:49;;;;;;;3.30;0.60;;;;;;;28.55;38.15;100989.78;5060085;28;20055;-68
2022/07/11 08:59:17;;;;;;;3.65;0.73;;;;;;;28.68;37.83;100987.34;5060535;28;20400;-68
2022/07/11 09:01:44;;;;;;;2.55;0.57;;;;;;;28.81;38.13;100984.94;5060238;28;20557;-69
2022/07/11 09:04:10;;;;;;;4.05;0.60;;;;;;;28.89;37.13;100995.09;5039865;28;20026;-69
2022/07/11 09:06:36;;;;;;;1.23;0.70;;;;;;;28.95;36.89;100994.31;5075265;28;20036;-69
2022/07/11 09:09:01;;;;;;;1.80;0.50;;;;;;;29.01;36.59;100988.19;5076920;28;20485;-68
2022/07/11 09:11:27;;;;;;;4.13;0.60;;;;;;;29.03;36.47;100988.56;5060160;28;20029;-68
2022/07/11 09:13:53;;;;;;;3.03;0.68;;;;;;;29.07;36.16;100981.66;5056794;28;20021;-69
2022/07/11 09:16:26;;;;;;;2.53;0.68;;;;;;;29.21;36.19;100974.28;5090364;28;20032;-68
2022/07/11 09:18:52;;;;;;;1.15;0.50;;;;;;;29.32;35.92;100987.34;5075841;28;20033;-68
2022/07/11 09:26:48;;;;;;;1.75;0.50;;;;;;;29.47;34.39;100981.59;5071712;28;20522;-68
2022/07/11 09:29:20;;;;;;;4.60;0.70;;;;;;;29.53;35.05;100972.19;5043481;28;20117;-68
2022/07/11 09:31:46;;;;;;;1.30;0.60;;;;;;;29.64;35.71;100969.28;5043534;28;20035;-68
2022/07/11 09:34:15;;;;;;;1.05;0.50;;;;;;;29.73;35.13;100958.25;5042926;28;20405;-68
2022/07/11 09:36:48;;;;;;;1.33;0.50;;;;;;;29.86;35.83;100958.56;5051232;28;20029;-68
2022/07/11 09:39:18;;;;;;;3.63;0.70;;;;;;;29.98;34.76;100958.13;5076270;28;20032;-68
2022/07/11 09:41:44;;;;;;;2.65;0.40;;;;;;;30.04;34.05;100967.91;5043076;28;20024;-68
2022/07/11 09:44:27;;;;;;;2.72;0.50;;;;;;;30.04;34.22;100965.03;5059393;28;20102;-68
2022/07/11 09:46:52;;;;;;;2.92;0.60;;;;;;;30.02;34.06;100967.50;5060001;28;20512;-68
2022/07/11 09:49:35;;;;;;;4.15;0.63;;;;;;;30.14;33.82;100963.34;5059120;28;20123;-68
2022/07/11 09:52:10;;;;;;;;;;;;;;;30.23;34.49;100966.59;5059816;28;20039;-68
2022/07/11 09:54:56;;;;;;;1.80;0.30;;;;;;;30.30;34.45;100971.47;5075550;28;20296;-68
2022/07/11 09:57:35;;;;;;;3.13;0.68;;;;;;;30.37;33.64;100959.97;5071423;28;20064;-69
2022/07/11 10:00:11;;;;;;;1.00;0.45;;;;;;;30.52;34.02;100971.31;5059225;28;20119;-68
2022/07/11 10:02:37;;;;;;;1.20;0.40;;;;;;;30.63;33.43;100967.13;5040332;28;20037;-68
2022/07/11 10:05:03;;;;;;;1.27;0.40;;;;;;;30.66;33.96;100959.75;5039142;28;20078;-68
2022/07/11 10:07:28;;;;;;;1.23;0.60;;;;;;;30.75;33.90;100962.94;5074919;28;20028;-68
2022/07/11 10:09:54;;;;;;;1.67;0.60;;;;;;;30.77;34.02;100971.94;5090355;28;20366;-68
2022/07/11 10:12:20;;;;;;;1.20;0.52;;;;;;;30.85;33.20;100967.00;5071408;28;20031;-68
2022/07/11 10:14:45;;;;;;;1.15;0.55;;;;;;;30.94;33.00;100958.72;5075565;28;20538;-68
2022/07/11 10:17:26;;;;;;;2.05;0.30;;;;;;;30.96;33.58;100966.91;5042095;28;20048;-68
2022/07/11 10:20:24;;;;;;;1.70;0.77;;;;;;;30.99;33.30;100966.06;5074814;28;20043;-68
2022/07/11 10:23:11;;;;;;;1.02;0.40;;;;;;;31.04;33.36;100971.34;5070052;28;20094;-68
2022/07/11 10:25:45;;;;;;;1.77;0.52;;;;;;;31.13;32.66;100971.66;5058261;28;20028;-68
2022/07/11 10:28:16;;;;;;;1.23;0.40;;;;;;;31.20;33.50;100974.44;5054768;28;20056;-68
2022/07/11 10:30:52;;;;;;;3.33;0.50;;;;;;;31.16;33.00;100967.94;5051078;28;20085;-68
2022/07/11 10:33:18;;;;;;;1.67;0.55;;;;;;;31.23;33.28;100962.13;5059710;28;20043;-68
2022/07/11 10:35:45;;;;;;;2.88;0.40;;;;;;;31.37;32.50;100958.31;5092029;28;20059;-68
2022/07/11 10:38:11;;;;;;;3.13;0.50;;;;;;;31.35;33.19;100957.91;5057665;28;20094;-68
2022/07/11 10:41:00;;;;;;;2.25;0.40;;;;;;;31.32;32.49;100968.19;5058273;28;20107;-68
2022/07/11 10:43:42;;;;;;;1.65;0.40;;;;;;;31.39;32.47;100962.38;5047375;28;20044;-68
2022/07/11 10:46:12;;;;;;;0.82;0.40;;;;;;;31.50;32.57;100955.72;5055535;28;20037;-68
2022/07/11 10:49:05;;;;;;;2.20;0.50;;;;;;;31.62;32.57;100946.53;5070394;28;20055;-68
2022/07/11 10:51:40;;;;;;;1.23;0.35;;;;;;;31.69;32.70;100949.31;5074773;28;20036;-68
2022/07/11 10:54:19;;;;;;;3.13;0.60;;;;;;;31.88;32.44;100944.97;5055933;28;20060;-68
2022/07/11 10:57:03;;;;;;;2.15;0.50;;;;;;;31.97;32.98;100944.47;5071073;28;20061;-68
2022/07/11 10:59:29;;;;;;;1.27;0.50;;;;;;;32.03;32.12;100943.56;5075735;28;20064;-68
2022/07/11 11:02:19;;;;;;;2.40;0.40;;;;;;;32.14;32.13;100937.66;5040424;28;20028;-68
2022/07/11 11:04:45;;;;;;;1.48;0.35;;;;;;;32.25;32.94;100935.44;5089982;28;20041;-68
2022/07/11 11:07:29;;;;;;;1.40;0.60;;;;;;;32.31;31.58;100929.22;5058057;28;20035;-68
2022/07/11 11:09:55;;;;;;;1.67;0.60;;;;;;;32.33;31.67;100926.72;5075790;28;20032;-68
2022/07/11 11:12:20;;;;;;;3.22;0.52;;;;;;;32.44;32.15;100927.38;5074601;28;20028;-68
2022/07/11 11:14:46;;;;;;;1.85;0.50;;;;;;;32.49;31.81;100918.28;5038222;28;20378;-68
2022/07/11 11:17:34;;;;;;;3.92;0.47;;;;;;;32.37;31.86;100924.59;5037790;28;20029;-68
2022/07/11 11:20:01;;;;;;;1.98;0.45;;;;;;;32.47;32.19;100921.59;5067542;28;20017;-68
2022/07/11 11:22:28;;;;;;;0.65;0.32;;;;;;;32.60;32.44;100918.91;5052184;28;20506;-68
2022/07/11 11:24:54;;;;;;;0.40;0.32;;;;;;;32.75;32.07;100918.66;5041936;28;20032;-68
2022/07/11 11:27:24;;;;;;;1.55;0.40;;;;;;;32.87;31.81;100903.66;5041507;28;20039;-68
2022/07/11 11:29:50;;;;;;;2.72;0.40;;;;;;;33.01;31.60;100909.16;5057924;28;20048;-68
2022/07/11 11:32:16;;;;;;;2.65;0.40;;;;;;;33.12;30.98;100908.97;5063334;28;20028;-69